sensor_id;sensor_type;location;lat;lon;timestamp;P1;durP1;ratioP1;P2;durP2;ratioP2
30185;SDS011;31152;49.190;8.122;2023-05-10T00:02:06;0.70;;;0.30;;
30185;SDS011;31152;49.190;8.122;2023-05-10T00:04:33;0.50;;;0.38;;
30185;SDS011;31152;49.190;8.122;2023-05-10T00:07:00;1.77;;;0.65;;
30185;SDS011;31152;49.190;8.122;2023-05-10T00:09:27;1.75;;;0.30;;
30185;SDS011;31152;49.190;8.122;2023-05-10T00:11:54;2.20;;;0.47;;
30185;SDS011;31152;49.190;8.122;2023-05-10T00:14:20;0.70;;;0.40;;
30185;SDS011;31152;49.190;8.122;2023-05-10T00:16:47;2.50;;;0.50;;
30185;SDS011;31152;49.190;8.122;2023-05-10T00:19:14;3.22;;;0.32;;
30185;SDS011;31152;49.190;8.122;2023-05-10T00:21:41;0.90;;;0.45;;
30185;SDS011;31152;49.190;8.122;2023-05-10T00:24:07;0.38;;;0.30;;
30185;SDS011;31152;49.190;8.122;2023-05-10T00:26:34;0.40;;;0.40;;
30185;SDS011;31152;49.190;8.122;2023-05-10T00:29:01;0.90;;;0.35;;
30185;SDS011;31152;49.190;8.122;2023-05-10T00:31:28;1.13;;;0.38;;
30185;SDS011;31152;49.190;8.122;2023-05-10T00:33:55;0.50;;;0.50;;
30185;SDS011;31152;49.190;8.122;2023-05-10T00:36:22;0.80;;;0.60;;
30185;SDS011;31152;49.190;8.122;2023-05-10T00:38:48;1.40;;;0.40;;
30185;SDS011;31152;49.190;8.122;2023-05-10T00:41:15;0.40;;;0.40;;
30185;SDS011;31152;49.190;8.122;2023-05-10T00:43:47;0.60;;;0.43;;
30185;SDS011;31152;49.190;8.122;2023-05-10T00:46:14;0.50;;;0.40;;
30185;SDS011;31152;49.190;8.122;2023-05-10T00:48:42;0.57;;;0.40;;
30185;SDS011;31152;49.190;8.122;2023-05-10T00:51:10;0.40;;;0.40;;
30185;SDS011;31152;49.190;8.122;2023-05-10T00:53:37;1.23;;;0.50;;
30185;SDS011;31152;49.190;8.122;2023-05-10T00:56:04;1.15;;;0.40;;
30185;SDS011;31152;49.190;8.122;2023-05-10T00:58:31;2.85;;;0.73;;
30185;SDS011;31152;49.190;8.122;2023-05-10T01:01:00;0.43;;;0.30;;
30185;SDS011;31152;49.190;8.122;2023-05-10T01:03:27;0.65;;;0.40;;
30185;SDS011;31152;49.190;8.122;2023-05-10T01:06:03;3.53;;;0.50;;
30185;SDS011;31152;49.190;8.122;2023-05-10T01:08:33;2.05;;;0.40;;
30185;SDS011;31152;49.190;8.122;2023-05-10T01:11:00;2.97;;;0.57;;
30185;SDS011;31152;49.190;8.122;2023-05-10T01:13:33;0.93;;;0.50;;
30185;SDS011;31152;49.190;8.122;2023-05-10T01:16:07;1.05;;;0.50;;
30185;SDS011;31152;49.190;8.122;2023-05-10T01:18:35;3.05;;;0.50;;
30185;SDS011;31152;49.190;8.122;2023-05-10T01:21:19;1.10;;;0.60;;
30185;SDS011;31152;49.190;8.122;2023-05-10T01:29:52;3.35;;;0.60;;
30185;SDS011;31152;49.190;8.122;2023-05-10T01:32:36;0.90;;;0.60;;
30185;SDS011;31152;49.190;8.122;2023-05-10T01:35:18;3.22;;;0.88;;
30185;SDS011;31152;49.190;8.122;2023-05-10T01:40:53;1.15;;;0.68;;
30185;SDS011;31152;49.190;8.122;2023-05-10T01:43:26;1.15;;;0.85;;
30185;SDS011;31152;49.190;8.122;2023-05-10T01:46:07;1.37;;;0.97;;
30185;SDS011;31152;49.190;8.122;2023-05-10T01:48:42;2.42;;;0.80;;
30185;SDS011;31152;49.190;8.122;2023-05-10T01:51:15;1.02;;;0.85;;
30185;SDS011;31152;49.190;8.122;2023-05-10T01:53:56;0.70;;;0.70;;
30185;SDS011;31152;49.190;8.122;2023-05-10T01:56:26;1.40;;;0.85;;
30185;SDS011;31152;49.190;8.122;2023-05-10T01:58:56;3.78;;;0.95;;
30185;SDS011;31152;49.190;8.122;2023-05-10T02:01:24;1.08;;;0.80;;
30185;SDS011;31152;49.190;8.122;2023-05-10T02:03:52;2.03;;;1.00;;
30185;SDS011;31152;49.190;8.122;2023-05-10T02:06:21;1.30;;;1.13;;
30185;SDS011;31152;49.190;8.122;2023-05-10T02:08:49;3.95;;;0.80;;
30185;SDS011;31152;49.190;8.122;2023-05-10T02:11:18;1.45;;;0.90;;
30185;SDS011;31152;49.190;8.122;2023-05-10T02:13:47;1.00;;;0.90;;
30185;SDS011;31152;49.190;8.122;2023-05-10T02:16:16;1.40;;;1.15;;
30185;SDS011;31152;49.190;8.122;2023-05-10T02:18:44;3.90;;;1.20;;
30185;SDS011;31152;49.190;8.122;2023-05-10T02:21:11;2.67;;;1.20;;
30185;SDS011;31152;49.190;8.122;2023-05-10T02:23:40;1.50;;;1.30;;
30185;SDS011;31152;49.190;8.122;2023-05-10T02:26:09;2.72;;;1.30;;
30185;SDS011;31152;49.190;8.122;2023-05-10T02:28:40;5.00;;;2.13;;
30185;SDS011;31152;49.190;8.122;2023-05-10T02:31:08;2.30;;;1.67;;
30185;SDS011;31152;49.190;8.122;2023-05-10T02:33:37;2.13;;;1.60;;
30185;SDS011;31152;49.190;8.122;2023-05-10T02:36:07;4.22;;;1.58;;
30185;SDS011;31152;49.190;8.122;2023-05-10T02:38:35;4.03;;;2.03;;
30185;SDS011;31152;49.190;8.122;2023-05-10T02:41:03;3.78;;;1.73;;
30185;SDS011;31152;49.190;8.122;2023-05-10T02:43:33;2.05;;;1.65;;
30185;SDS011;31152;49.190;8.122;2023-05-10T02:46:01;8.18;;;2.78;;
30185;SDS011;31152;49.190;8.122;2023-05-10T02:48:30;2.70;;;2.40;;
30185;SDS011;31152;49.190;8.122;2023-05-10T02:51:00;6.35;;;2.40;;
30185;SDS011;31152;49.190;8.122;2023-05-10T02:53:34;3.05;;;2.30;;
30185;SDS011;31152;49.190;8.122;2023-05-10T02:56:04;3.30;;;1.98;;
30185;SDS011;31152;49.190;8.122;2023-05-10T02:58:33;2.97;;;1.70;;
30185;SDS011;31152;49.190;8.122;2023-05-10T03:01:00;3.15;;;1.30;;
30185;SDS011;31152;49.190;8.122;2023-05-10T03:03:27;3.63;;;1.30;;
30185;SDS011;31152;49.190;8.122;2023-05-10T03:05:53;2.50;;;1.23;;
30185;SDS011;31152;49.190;8.122;2023-05-10T03:08:22;2.35;;;1.40;;
30185;SDS011;31152;49.190;8.122;2023-05-10T03:10:54;3.42;;;1.33;;
30185;SDS011;31152;49.190;8.122;2023-05-10T03:13:39;3.13;;;1.43;;
30185;SDS011;31152;49.190;8.122;2023-05-10T03:16:15;6.82;;;1.52;;
30185;SDS011;31152;49.190;8.122;2023-05-10T03:18:56;2.22;;;1.45;;
30185;SDS011;31152;49.190;8.122;2023-05-10T03:21:35;1.33;;;1.20;;
30185;SDS011;31152;49.190;8.122;2023-05-10T03:24:07;2.17;;;1.40;;
30185;SDS011;31152;49.190;8.122;2023-05-10T03:26:37;2.58;;;1.58;;
30185;SDS011;31152;49.190;8.122;2023-05-10T03:29:09;1.83;;;1.35;;
30185;SDS011;31152;49.190;8.122;2023-05-10T03:31:38;2.25;;;1.38;;
30185;SDS011;31152;49.190;8.122;2023-05-10T03:34:05;3.65;;;1.40;;
30185;SDS011;31152;49.190;8.122;2023-05-10T03:36:33;3.92;;;1.70;;
30185;SDS011;31152;49.190;8.122;2023-05-10T03:38:59;6.95;;;1.63;;
30185;SDS011;31152;49.190;8.122;2023-05-10T03:41:26;3.55;;;1.70;;
30185;SDS011;31152;49.190;8.122;2023-05-10T03:43:53;3.97;;;1.60;;
30185;SDS011;31152;49.190;8.122;2023-05-10T03:46:22;3.33;;;1.67;;
30185;SDS011;31152;49.190;8.122;2023-05-10T03:48:51;2.20;;;1.98;;
30185;SDS011;31152;49.190;8.122;2023-05-10T03:51:18;6.30;;;2.20;;
30185;SDS011;31152;49.190;8.122;2023-05-10T03:53:45;4.40;;;2.47;;
30185;SDS011;31152;49.190;8.122;2023-05-10T03:56:12;5.95;;;2.30;;
30185;SDS011;31152;49.190;8.122;2023-05-10T03:58:41;6.43;;;2.50;;
30185;SDS011;31152;49.190;8.122;2023-05-10T04:01:08;5.40;;;2.72;;
30185;SDS011;31152;49.190;8.122;2023-05-10T04:03:34;4.35;;;2.33;;
30185;SDS011;31152;49.190;8.122;2023-05-10T04:06:04;5.68;;;2.40;;
30185;SDS011;31152;49.190;8.122;2023-05-10T04:08:31;3.45;;;2.47;;
30185;SDS011;31152;49.190;8.122;2023-05-10T04:11:04;3.72;;;2.10;;
30185;SDS011;31152;49.190;8.122;2023-05-10T04:13:35;3.03;;;2.50;;
30185;SDS011;31152;49.190;8.122;2023-05-10T04:16:02;2.85;;;2.53;;
30185;SDS011;31152;49.190;8.122;2023-05-10T04:18:28;2.60;;;2.40;;
30185;SDS011;31152;49.190;8.122;2023-05-10T04:20:55;5.30;;;3.10;;
30185;SDS011;31152;49.190;8.122;2023-05-10T04:23:22;4.75;;;2.60;;
30185;SDS011;31152;49.190;8.122;2023-05-10T04:25:49;2.92;;;2.40;;
30185;SDS011;31152;49.190;8.122;2023-05-10T04:28:16;11.60;;;3.30;;
30185;SDS011;31152;49.190;8.122;2023-05-10T04:30:42;4.22;;;2.85;;
30185;SDS011;31152;49.190;8.122;2023-05-10T04:33:09;3.65;;;2.90;;
30185;SDS011;31152;49.190;8.122;2023-05-10T04:35:35;3.33;;;3.00;;
30185;SDS011;31152;49.190;8.122;2023-05-10T04:38:02;4.40;;;3.00;;
30185;SDS011;31152;49.190;8.122;2023-05-10T04:40:29;5.68;;;3.05;;
30185;SDS011;31152;49.190;8.122;2023-05-10T04:42:56;4.30;;;2.97;;
30185;SDS011;31152;49.190;8.122;2023-05-10T04:45:22;4.78;;;2.65;;
30185;SDS011;31152;49.190;8.122;2023-05-10T04:47:49;5.88;;;2.95;;
30185;SDS011;31152;49.190;8.122;2023-05-10T04:50:16;6.55;;;2.83;;
30185;SDS011;31152;49.190;8.122;2023-05-10T04:52:43;3.15;;;2.35;;
30185;SDS011;31152;49.190;8.122;2023-05-10T04:55:11;3.65;;;2.70;;
30185;SDS011;31152;49.190;8.122;2023-05-10T04:57:37;3.50;;;2.90;;
30185;SDS011;31152;49.190;8.122;2023-05-10T05:00:04;3.45;;;2.90;;
30185;SDS011;31152;49.190;8.122;2023-05-10T05:02:31;3.25;;;2.85;;
30185;SDS011;31152;49.190;8.122;2023-05-10T05:04:58;4.50;;;2.50;;
30185;SDS011;31152;49.190;8.122;2023-05-10T05:07:25;3.33;;;1.90;;
30185;SDS011;31152;49.190;8.122;2023-05-10T05:09:51;6.13;;;2.05;;
30185;SDS011;31152;49.190;8.122;2023-05-10T05:12:21;5.65;;;2.70;;
30185;SDS011;31152;49.190;8.122;2023-05-10T05:14:49;3.35;;;1.90;;
30185;SDS011;31152;49.190;8.122;2023-05-10T05:17:16;2.92;;;1.60;;
30185;SDS011;31152;49.190;8.122;2023-05-10T05:19:43;3.42;;;1.60;;
30185;SDS011;31152;49.190;8.122;2023-05-10T05:22:09;2.88;;;1.63;;
30185;SDS011;31152;49.190;8.122;2023-05-10T05:24:39;2.92;;;1.92;;
30185;SDS011;31152;49.190;8.122;2023-05-10T05:27:05;5.60;;;1.40;;
30185;SDS011;31152;49.190;8.122;2023-05-10T05:29:33;9.20;;;1.83;;
30185;SDS011;31152;49.190;8.122;2023-05-10T05:31:59;3.28;;;1.50;;
30185;SDS011;31152;49.190;8.122;2023-05-10T05:34:26;3.40;;;1.67;;
30185;SDS011;31152;49.190;8.122;2023-05-10T05:36:53;4.55;;;1.83;;
30185;SDS011;31152;49.190;8.122;2023-05-10T05:39:20;2.20;;;1.60;;
30185;SDS011;31152;49.190;8.122;2023-05-10T05:41:49;2.30;;;1.55;;
30185;SDS011;31152;49.190;8.122;2023-05-10T05:44:18;2.15;;;1.38;;
30185;SDS011;31152;49.190;8.122;2023-05-10T05:46:45;1.92;;;1.50;;
30185;SDS011;31152;49.190;8.122;2023-05-10T05:49:14;3.05;;;1.40;;
30185;SDS011;31152;49.190;8.122;2023-05-10T05:51:40;4.05;;;1.70;;
30185;SDS011;31152;49.190;8.122;2023-05-10T05:54:10;5.40;;;1.42;;
30185;SDS011;31152;49.190;8.122;2023-05-10T05:56:37;2.00;;;1.38;;
30185;SDS011;31152;49.190;8.122;2023-05-10T05:59:04;3.50;;;1.63;;
30185;SDS011;31152;49.190;8.122;2023-05-10T06:01:33;2.95;;;1.58;;
30185;SDS011;31152;49.190;8.122;2023-05-10T06:04:02;4.07;;;1.65;;
30185;SDS011;31152;49.190;8.122;2023-05-10T06:06:29;3.72;;;1.25;;
30185;SDS011;31152;49.190;8.122;2023-05-10T06:08:58;5.50;;;1.42;;
30185;SDS011;31152;49.190;8.122;2023-05-10T06:11:25;3.60;;;1.33;;
30185;SDS011;31152;49.190;8.122;2023-05-10T06:13:54;1.95;;;1.00;;
30185;SDS011;31152;49.190;8.122;2023-05-10T06:16:21;2.47;;;1.40;;
30185;SDS011;31152;49.190;8.122;2023-05-10T06:18:47;4.10;;;1.40;;
30185;SDS011;31152;49.190;8.122;2023-05-10T06:21:19;3.53;;;1.20;;
30185;SDS011;31152;49.190;8.122;2023-05-10T06:23:45;2.78;;;1.38;;
30185;SDS011;31152;49.190;8.122;2023-05-10T06:26:12;2.78;;;1.30;;
30185;SDS011;31152;49.190;8.122;2023-05-10T06:28:39;1.63;;;0.80;;
30185;SDS011;31152;49.190;8.122;2023-05-10T06:31:07;5.28;;;1.40;;
30185;SDS011;31152;49.190;8.122;2023-05-10T06:33:33;4.18;;;1.30;;
30185;SDS011;31152;49.190;8.122;2023-05-10T06:36:00;4.88;;;1.15;;
30185;SDS011;31152;49.190;8.122;2023-05-10T06:38:27;1.95;;;1.10;;
30185;SDS011;31152;49.190;8.122;2023-05-10T06:40:54;4.68;;;1.85;;
30185;SDS011;31152;49.190;8.122;2023-05-10T06:43:23;5.00;;;1.80;;
30185;SDS011;31152;49.190;8.122;2023-05-10T06:45:50;3.92;;;1.10;;
30185;SDS011;31152;49.190;8.122;2023-05-10T06:48:19;1.55;;;1.00;;
30185;SDS011;31152;49.190;8.122;2023-05-10T06:50:46;3.95;;;1.13;;
30185;SDS011;31152;49.190;8.122;2023-05-10T06:53:15;3.35;;;1.40;;
30185;SDS011;31152;49.190;8.122;2023-05-10T06:55:42;2.65;;;1.20;;
30185;SDS011;31152;49.190;8.122;2023-05-10T06:58:09;4.40;;;1.30;;
30185;SDS011;31152;49.190;8.122;2023-05-10T07:00:35;1.33;;;1.00;;
30185;SDS011;31152;49.190;8.122;2023-05-10T07:03:06;1.38;;;0.75;;
30185;SDS011;31152;49.190;8.122;2023-05-10T07:05:33;1.92;;;0.80;;
30185;SDS011;31152;49.190;8.122;2023-05-10T07:08:02;1.02;;;0.80;;
30185;SDS011;31152;49.190;8.122;2023-05-10T07:10:29;3.92;;;1.00;;
30185;SDS011;31152;49.190;8.122;2023-05-10T07:12:55;3.50;;;1.00;;
30185;SDS011;31152;49.190;8.122;2023-05-10T07:15:22;4.88;;;0.80;;
30185;SDS011;31152;49.190;8.122;2023-05-10T07:17:49;4.90;;;0.82;;
30185;SDS011;31152;49.190;8.122;2023-05-10T07:20:16;1.88;;;0.77;;
30185;SDS011;31152;49.190;8.122;2023-05-10T07:22:43;2.67;;;0.82;;
30185;SDS011;31152;49.190;8.122;2023-05-10T07:25:09;2.25;;;0.85;;
30185;SDS011;31152;49.190;8.122;2023-05-10T07:27:36;1.88;;;0.80;;
30185;SDS011;31152;49.190;8.122;2023-05-10T07:30:03;3.17;;;0.80;;
30185;SDS011;31152;49.190;8.122;2023-05-10T07:32:30;1.85;;;0.90;;
30185;SDS011;31152;49.190;8.122;2023-05-10T07:34:57;0.88;;;0.88;;
30185;SDS011;31152;49.190;8.122;2023-05-10T07:37:24;5.38;;;1.00;;
30185;SDS011;31152;49.190;8.122;2023-05-10T07:39:51;1.33;;;0.90;;
30185;SDS011;31152;49.190;8.122;2023-05-10T07:42:17;1.00;;;0.65;;
30185;SDS011;31152;49.190;8.122;2023-05-10T07:44:44;6.88;;;1.45;;
30185;SDS011;31152;49.190;8.122;2023-05-10T07:47:11;1.55;;;0.98;;
30185;SDS011;31152;49.190;8.122;2023-05-10T07:49:38;2.55;;;0.70;;
30185;SDS011;31152;49.190;8.122;2023-05-10T07:52:04;3.17;;;0.77;;
30185;SDS011;31152;49.190;8.122;2023-05-10T07:54:31;1.10;;;1.00;;
30185;SDS011;31152;49.190;8.122;2023-05-10T07:57:00;1.15;;;0.73;;
30185;SDS011;31152;49.190;8.122;2023-05-10T07:59:27;2.22;;;1.30;;
30185;SDS011;31152;49.190;8.122;2023-05-10T08:01:54;3.55;;;0.98;;
30185;SDS011;31152;49.190;8.122;2023-05-10T08:04:21;2.50;;;0.93;;
30185;SDS011;31152;49.190;8.122;2023-05-10T08:06:48;1.35;;;0.90;;
30185;SDS011;31152;49.190;8.122;2023-05-10T08:09:15;1.55;;;1.00;;
30185;SDS011;31152;49.190;8.122;2023-05-10T08:11:42;2.60;;;0.90;;
30185;SDS011;31152;49.190;8.122;2023-05-10T08:14:08;2.78;;;1.05;;
30185;SDS011;31152;49.190;8.122;2023-05-10T08:16:35;2.08;;;1.08;;
30185;SDS011;31152;49.190;8.122;2023-05-10T08:19:02;3.40;;;0.88;;
30185;SDS011;31152;49.190;8.122;2023-05-10T08:21:29;1.60;;;0.60;;
30185;SDS011;31152;49.190;8.122;2023-05-10T08:23:57;3.58;;;0.80;;
30185;SDS011;31152;49.190;8.122;2023-05-10T08:26:24;1.83;;;0.70;;
30185;SDS011;31152;49.190;8.122;2023-05-10T08:28:51;0.82;;;0.68;;
30185;SDS011;31152;49.190;8.122;2023-05-10T08:31:18;1.23;;;0.60;;
30185;SDS011;31152;49.190;8.122;2023-05-10T08:33:50;1.33;;;0.70;;
30185;SDS011;31152;49.190;8.122;2023-05-10T08:36:18;1.30;;;0.80;;
30185;SDS011;31152;49.190;8.122;2023-05-10T08:38:50;1.88;;;0.70;;
30185;SDS011;31152;49.190;8.122;2023-05-10T08:41:21;2.60;;;0.90;;
30185;SDS011;31152;49.190;8.122;2023-05-10T08:43:54;1.63;;;0.70;;
30185;SDS011;31152;49.190;8.122;2023-05-10T08:46:21;4.10;;;1.00;;
30185;SDS011;31152;49.190;8.122;2023-05-10T08:48:49;3.95;;;1.10;;
30185;SDS011;31152;49.190;8.122;2023-05-10T08:51:20;4.05;;;0.80;;
30185;SDS011;31152;49.190;8.122;2023-05-10T08:53:52;2.20;;;0.80;;
30185;SDS011;31152;49.190;8.122;2023-05-10T08:56:20;0.85;;;0.80;;
30185;SDS011;31152;49.190;8.122;2023-05-10T08:58:47;2.95;;;0.80;;
30185;SDS011;31152;49.190;8.122;2023-05-10T09:01:15;1.75;;;0.77;;
30185;SDS011;31152;49.190;8.122;2023-05-10T09:03:45;3.22;;;0.60;;
30185;SDS011;31152;49.190;8.122;2023-05-10T09:06:14;5.00;;;0.70;;
30185;SDS011;31152;49.190;8.122;2023-05-10T09:08:44;2.25;;;0.68;;
30185;SDS011;31152;49.190;8.122;2023-05-10T09:11:11;1.83;;;0.70;;
30185;SDS011;31152;49.190;8.122;2023-05-10T09:13:39;1.95;;;0.60;;
30185;SDS011;31152;49.190;8.122;2023-05-10T09:16:08;0.85;;;0.70;;
30185;SDS011;31152;49.190;8.122;2023-05-10T09:18:46;1.23;;;0.70;;
30185;SDS011;31152;49.190;8.122;2023-05-10T09:21:13;0.88;;;0.47;;
30185;SDS011;31152;49.190;8.122;2023-05-10T09:23:42;1.55;;;0.70;;
30185;SDS011;31152;49.190;8.122;2023-05-10T09:26:13;2.75;;;0.60;;
30185;SDS011;31152;49.190;8.122;2023-05-10T09:28:50;2.05;;;0.57;;
30185;SDS011;31152;49.190;8.122;2023-05-10T09:31:23;1.38;;;0.57;;
30185;SDS011;31152;49.190;8.122;2023-05-10T09:33:53;4.30;;;0.70;;
30185;SDS011;31152;49.190;8.122;2023-05-10T09:36:22;4.10;;;0.90;;
30185;SDS011;31152;49.190;8.122;2023-05-10T09:38:50;1.20;;;0.88;;
30185;SDS011;31152;49.190;8.122;2023-05-10T09:41:18;4.00;;;0.60;;
30185;SDS011;31152;49.190;8.122;2023-05-10T09:43:46;2.30;;;0.90;;
30185;SDS011;31152;49.190;8.122;2023-05-10T09:46:14;2.15;;;0.90;;
30185;SDS011;31152;49.190;8.122;2023-05-10T09:48:44;3.00;;;0.95;;
30185;SDS011;31152;49.190;8.122;2023-05-10T09:51:20;1.00;;;0.70;;
30185;SDS011;31152;49.190;8.122;2023-05-10T09:53:47;1.88;;;1.08;;
30185;SDS011;31152;49.190;8.122;2023-05-10T09:56:17;1.13;;;0.77;;
30185;SDS011;31152;49.190;8.122;2023-05-10T09:59:03;1.85;;;0.60;;
30185;SDS011;31152;49.190;8.122;2023-05-10T10:01:31;1.70;;;0.70;;
30185;SDS011;31152;49.190;8.122;2023-05-10T10:03:58;2.40;;;0.68;;
30185;SDS011;31152;49.190;8.122;2023-05-10T10:06:25;3.00;;;0.93;;
30185;SDS011;31152;49.190;8.122;2023-05-10T10:08:55;4.40;;;0.88;;
30185;SDS011;31152;49.190;8.122;2023-05-10T10:11:23;3.38;;;1.10;;
30185;SDS011;31152;49.190;8.122;2023-05-10T10:13:50;2.47;;;0.80;;
30185;SDS011;31152;49.190;8.122;2023-05-10T10:16:17;3.83;;;1.20;;
30185;SDS011;31152;49.190;8.122;2023-05-10T10:18:43;1.83;;;1.05;;
30185;SDS011;31152;49.190;8.122;2023-05-10T10:21:10;1.80;;;1.13;;
30185;SDS011;31152;49.190;8.122;2023-05-10T10:23:39;3.08;;;1.20;;
30185;SDS011;31152;49.190;8.122;2023-05-10T10:26:06;3.05;;;1.20;;
30185;SDS011;31152;49.190;8.122;2023-05-10T10:31:27;3.55;;;0.80;;
30185;SDS011;31152;49.190;8.122;2023-05-10T10:34:28;4.25;;;1.00;;
30185;SDS011;31152;49.190;8.122;2023-05-10T10:36:59;2.55;;;0.60;;
30185;SDS011;31152;49.190;8.122;2023-05-10T10:39:31;3.35;;;0.95;;
30185;SDS011;31152;49.190;8.122;2023-05-10T10:42:00;1.73;;;0.73;;
30185;SDS011;31152;49.190;8.122;2023-05-10T10:52:25;2.05;;;0.75;;
30185;SDS011;31152;49.190;8.122;2023-05-10T10:55:12;2.88;;;0.90;;
30185;SDS011;31152;49.190;8.122;2023-05-10T10:57:52;7.35;;;0.73;;
30185;SDS011;31152;49.190;8.122;2023-05-10T11:00:29;4.72;;;0.70;;
30185;SDS011;31152;49.190;8.122;2023-05-10T11:03:08;4.40;;;0.90;;
30185;SDS011;31152;49.190;8.122;2023-05-10T11:05:45;4.32;;;1.33;;
30185;SDS011;31152;49.190;8.122;2023-05-10T11:08:17;5.60;;;0.73;;
30185;SDS011;31152;49.190;8.122;2023-05-10T11:13:39;3.40;;;0.90;;
30185;SDS011;31152;49.190;8.122;2023-05-10T11:16:22;5.05;;;0.70;;
30185;SDS011;31152;49.190;8.122;2023-05-10T11:18:54;5.03;;;0.68;;
30185;SDS011;31152;49.190;8.122;2023-05-10T11:21:36;0.95;;;0.55;;
30185;SDS011;31152;49.190;8.122;2023-05-10T11:24:32;1.63;;;0.80;;
30185;SDS011;31152;49.190;8.122;2023-05-10T11:27:02;4.05;;;0.93;;
30185;SDS011;31152;49.190;8.122;2023-05-10T11:29:31;3.33;;;0.63;;
30185;SDS011;31152;49.190;8.122;2023-05-10T11:32:03;2.30;;;0.63;;
30185;SDS011;31152;49.190;8.122;2023-05-10T11:34:34;3.00;;;0.68;;
30185;SDS011;31152;49.190;8.122;2023-05-10T11:37:03;3.45;;;0.73;;
30185;SDS011;31152;49.190;8.122;2023-05-10T11:39:30;1.85;;;0.55;;
30185;SDS011;31152;49.190;8.122;2023-05-10T11:41:57;8.25;;;0.90;;
30185;SDS011;31152;49.190;8.122;2023-05-10T11:44:31;11.77;;;1.70;;
30185;SDS011;31152;49.190;8.122;2023-05-10T11:46:59;3.75;;;0.55;;
30185;SDS011;31152;49.190;8.122;2023-05-10T11:49:26;1.20;;;0.70;;
30185;SDS011;31152;49.190;8.122;2023-05-10T11:52:03;1.83;;;0.80;;
30185;SDS011;31152;49.190;8.122;2023-05-10T11:54:31;9.25;;;1.30;;
30185;SDS011;31152;49.190;8.122;2023-05-10T11:56:57;3.15;;;0.68;;
30185;SDS011;31152;49.190;8.122;2023-05-10T11:59:24;3.78;;;0.55;;
30185;SDS011;31152;49.190;8.122;2023-05-10T12:01:51;0.47;;;0.40;;
30185;SDS011;31152;49.190;8.122;2023-05-10T12:04:18;6.03;;;0.75;;
30185;SDS011;31152;49.190;8.122;2023-05-10T12:06:46;1.50;;;0.60;;
30185;SDS011;31152;49.190;8.122;2023-05-10T12:09:15;1.27;;;0.75;;
30185;SDS011;31152;49.190;8.122;2023-05-10T12:11:48;1.10;;;0.47;;
30185;SDS011;31152;49.190;8.122;2023-05-10T12:14:15;1.85;;;0.60;;
30185;SDS011;31152;49.190;8.122;2023-05-10T12:16:42;1.92;;;0.60;;
30185;SDS011;31152;49.190;8.122;2023-05-10T12:19:11;3.60;;;0.60;;
30185;SDS011;31152;49.190;8.122;2023-05-10T12:21:38;3.67;;;0.70;;
30185;SDS011;31152;49.190;8.122;2023-05-10T12:24:07;2.33;;;0.70;;
30185;SDS011;31152;49.190;8.122;2023-05-10T12:26:34;1.30;;;0.57;;
30185;SDS011;31152;49.190;8.122;2023-05-10T12:29:14;2.28;;;0.50;;
30185;SDS011;31152;49.190;8.122;2023-05-10T12:31:56;2.05;;;0.30;;
30185;SDS011;31152;49.190;8.122;2023-05-10T12:34:31;2.42;;;0.60;;
30185;SDS011;31152;49.190;8.122;2023-05-10T12:37:00;3.40;;;0.43;;
30185;SDS011;31152;49.190;8.122;2023-05-10T12:39:44;1.38;;;0.50;;
30185;SDS011;31152;49.190;8.122;2023-05-10T12:42:13;2.47;;;0.50;;
30185;SDS011;31152;49.190;8.122;2023-05-10T12:44:40;2.42;;;0.60;;
30185;SDS011;31152;49.190;8.122;2023-05-10T12:47:10;6.50;;;0.52;;
30185;SDS011;31152;49.190;8.122;2023-05-10T12:49:36;2.42;;;0.60;;
30185;SDS011;31152;49.190;8.122;2023-05-10T12:52:03;2.05;;;0.60;;
30185;SDS011;31152;49.190;8.122;2023-05-10T12:54:30;4.38;;;0.60;;
30185;SDS011;31152;49.190;8.122;2023-05-10T12:56:57;2.63;;;0.38;;
30185;SDS011;31152;49.190;8.122;2023-05-10T12:59:23;0.63;;;0.30;;
30185;SDS011;31152;49.190;8.122;2023-05-10T13:01:50;3.33;;;0.65;;
30185;SDS011;31152;49.190;8.122;2023-05-10T13:04:17;2.72;;;0.30;;
30185;SDS011;31152;49.190;8.122;2023-05-10T13:06:44;2.15;;;0.50;;
30185;SDS011;31152;49.190;8.122;2023-05-10T13:09:11;0.75;;;0.40;;
30185;SDS011;31152;49.190;8.122;2023-05-10T13:11:38;3.80;;;0.50;;
30185;SDS011;31152;49.190;8.122;2023-05-10T13:14:04;5.35;;;1.50;;
30185;SDS011;31152;49.190;8.122;2023-05-10T13:16:31;1.58;;;0.47;;
30185;SDS011;31152;49.190;8.122;2023-05-10T13:18:58;2.53;;;0.63;;
30185;SDS011;31152;49.190;8.122;2023-05-10T13:21:25;0.73;;;0.40;;
30185;SDS011;31152;49.190;8.122;2023-05-10T13:23:52;3.53;;;0.57;;
30185;SDS011;31152;49.190;8.122;2023-05-10T13:26:19;2.83;;;0.52;;
30185;SDS011;31152;49.190;8.122;2023-05-10T13:28:46;1.08;;;0.60;;
30185;SDS011;31152;49.190;8.122;2023-05-10T13:31:15;4.60;;;0.73;;
30185;SDS011;31152;49.190;8.122;2023-05-10T13:33:42;1.15;;;0.80;;
30185;SDS011;31152;49.190;8.122;2023-05-10T13:36:11;2.83;;;0.60;;
30185;SDS011;31152;49.190;8.122;2023-05-10T13:38:40;0.70;;;0.50;;
30185;SDS011;31152;49.190;8.122;2023-05-10T13:41:07;2.17;;;0.60;;
30185;SDS011;31152;49.190;8.122;2023-05-10T13:43:34;2.78;;;0.68;;
30185;SDS011;31152;49.190;8.122;2023-05-10T13:46:02;2.33;;;0.35;;
30185;SDS011;31152;49.190;8.122;2023-05-10T13:48:29;0.98;;;0.30;;
30185;SDS011;31152;49.190;8.122;2023-05-10T13:50:56;2.90;;;0.50;;
30185;SDS011;31152;49.190;8.122;2023-05-10T13:53:22;1.45;;;0.43;;
30185;SDS011;31152;49.190;8.122;2023-05-10T13:55:49;4.85;;;0.60;;
30185;SDS011;31152;49.190;8.122;2023-05-10T13:58:16;1.35;;;0.30;;
30185;SDS011;31152;49.190;8.122;2023-05-10T14:00:45;1.50;;;0.63;;
30185;SDS011;31152;49.190;8.122;2023-05-10T14:03:12;1.98;;;0.50;;
30185;SDS011;31152;49.190;8.122;2023-05-10T14:05:38;1.23;;;0.38;;
30185;SDS011;31152;49.190;8.122;2023-05-10T14:08:05;1.23;;;0.70;;
30185;SDS011;31152;49.190;8.122;2023-05-10T14:10:33;2.92;;;0.75;;
30185;SDS011;31152;49.190;8.122;2023-05-10T14:13:00;5.30;;;0.68;;
30185;SDS011;31152;49.190;8.122;2023-05-10T14:15:27;2.35;;;0.60;;
30185;SDS011;31152;49.190;8.122;2023-05-10T14:17:54;6.10;;;0.55;;
30185;SDS011;31152;49.190;8.122;2023-05-10T14:20:21;2.22;;;0.40;;
30185;SDS011;31152;49.190;8.122;2023-05-10T14:22:47;4.78;;;0.98;;
30185;SDS011;31152;49.190;8.122;2023-05-10T14:25:17;1.33;;;0.50;;
30185;SDS011;31152;49.190;8.122;2023-05-10T14:27:44;1.70;;;0.47;;
30185;SDS011;31152;49.190;8.122;2023-05-10T14:30:11;0.80;;;0.40;;
30185;SDS011;31152;49.190;8.122;2023-05-10T14:32:38;1.33;;;0.50;;
30185;SDS011;31152;49.190;8.122;2023-05-10T14:35:07;0.40;;;0.40;;
30185;SDS011;31152;49.190;8.122;2023-05-10T14:37:38;5.53;;;0.80;;
30185;SDS011;31152;49.190;8.122;2023-05-10T14:40:05;1.98;;;0.40;;
30185;SDS011;31152;49.190;8.122;2023-05-10T14:42:33;1.50;;;0.50;;
30185;SDS011;31152;49.190;8.122;2023-05-10T14:45:00;0.55;;;0.40;;
30185;SDS011;31152;49.190;8.122;2023-05-10T14:47:26;1.33;;;0.47;;
30185;SDS011;31152;49.190;8.122;2023-05-10T14:49:53;3.20;;;0.40;;
30185;SDS011;31152;49.190;8.122;2023-05-10T14:52:20;2.25;;;0.63;;
30185;SDS011;31152;49.190;8.122;2023-05-10T14:54:47;2.63;;;0.47;;
30185;SDS011;31152;49.190;8.122;2023-05-10T14:57:14;1.65;;;0.40;;
30185;SDS011;31152;49.190;8.122;2023-05-10T14:59:40;5.55;;;0.60;;
30185;SDS011;31152;49.190;8.122;2023-05-10T15:02:07;1.67;;;0.43;;
30185;SDS011;31152;49.190;8.122;2023-05-10T15:04:35;3.67;;;0.50;;
30185;SDS011;31152;49.190;8.122;2023-05-10T15:07:02;3.20;;;0.47;;
30185;SDS011;31152;49.190;8.122;2023-05-10T15:09:29;1.45;;;0.40;;
30185;SDS011;31152;49.190;8.122;2023-05-10T15:11:56;1.10;;;0.68;;
30185;SDS011;31152;49.190;8.122;2023-05-10T15:14:22;4.90;;;0.70;;
30185;SDS011;31152;49.190;8.122;2023-05-10T15:16:49;2.95;;;0.50;;
30185;SDS011;31152;49.190;8.122;2023-05-10T15:19:16;1.88;;;0.40;;
30185;SDS011;31152;49.190;8.122;2023-05-10T15:21:42;2.20;;;0.50;;